Time;durP1;ratioP1;P1;durP2;ratioP2;P2;SDS_P1;SDS_P2;PMS_P1;PMS_P2;Temp;Humidity;BMP_temperature;BMP_pressure;BME280_temperature;BME280_humidity;BME280_pressure;Samples;Min_cycle;Max_cycle;Signal;HPM_P1;HPM_P2
2023/10/10 00:01:40;;;;;;;;;;;14.60;99.90;;;;;;5075593;28;20414;-73
2023/10/10 00:04:06;;;;;;;;;;;14.60;99.90;;;;;;5077045;28;19923;-73
2023/10/10 00:06:38;;;;;;;;;;;14.60;99.90;;;;;;5077054;28;20656;-73
2023/10/10 00:09:10;;;;;;;;;;;14.60;99.90;;;;;;5077093;28;19924;-73
2023/10/10 00:11:37;;;;;;;;;;;14.50;99.90;;;;;;5074730;28;19944;-73
2023/10/10 00:14:06;;;;;;;;;;;14.60;99.90;;;;;;5077029;28;20280;-73
2023/10/10 00:16:36;;;;;;;;;;;14.50;99.90;;;;;;5076573;28;19913;-73
2023/10/10 00:22:06;;;;;;;;;;;14.50;99.90;;;;;;5052116;28;19912;-74
2023/10/10 00:24:31;;;;;;;;;;;14.40;99.90;;;;;;5076726;28;19914;-73
2023/10/10 00:27:12;;;;;;;;;;;14.40;99.90;;;;;;5074924;28;19916;-73
2023/10/10 00:29:44;;;;;;;;;;;14.40;99.90;;;;;;5076499;28;20456;-73
2023/10/10 00:32:22;;;;;;;;;;;14.30;99.90;;;;;;5076073;28;19924;-73
2023/10/10 00:34:50;;;;;;;;;;;14.30;99.90;;;;;;5076089;28;20407;-73
2023/10/10 00:37:20;;;;;;;;;;;14.30;99.90;;;;;;5075180;28;19915;-73
2023/10/10 00:39:53;;;;;;;;;;;14.20;99.90;;;;;;5076357;28;19912;-73
2023/10/10 00:42:36;;;;;;;;;;;14.20;99.90;;;;;;5076037;28;19912;-73
2023/10/10 00:45:09;;;;;;;;;;;14.30;99.90;;;;;;5076348;28;20007;-73
2023/10/10 00:47:40;;;;;;;;;;;14.20;99.90;;;;;;5074686;28;19916;-73
2023/10/10 00:50:15;;;;;;;;;;;14.20;99.90;;;;;;5076305;28;19920;-73
2023/10/10 00:52:41;;;;;;;;;;;14.20;99.90;;;;;;5075955;28;19915;-74
2023/10/10 00:55:09;;;;;;;;;;;14.10;99.90;;;;;;5076371;28;19939;-73
2023/10/10 00:57:37;;;;;;;;;;;14.10;99.90;;;;;;5074335;28;19908;-73
2023/10/10 01:00:13;;;;;;;;;;;14.00;99.90;;;;;;5076853;28;19909;-73
2023/10/10 01:02:39;;;;;;;;;;;14.00;99.90;;;;;;5074647;28;19913;-73
2023/10/10 01:05:12;;;;;;;;;;;13.90;99.90;;;;;;5074536;28;19919;-73
2023/10/10 01:07:38;;;;;;;;;;;13.90;99.90;;;;;;5076067;28;19912;-73
2023/10/10 01:10:16;;;;;;;;;;;13.90;99.90;;;;;;5076035;28;20486;-74
2023/10/10 01:12:42;;;;;;;;;;;13.90;99.90;;;;;;5074672;28;19908;-74
2023/10/10 01:15:14;;;;;;;;;;;13.80;99.90;;;;;;5075747;28;19915;-73
2023/10/10 01:17:40;;;;;;;;;;;13.70;99.90;;;;;;5075795;28;19955;-74
2023/10/10 01:20:20;;;;;;;;;;;13.70;99.90;;;;;;5075691;28;20394;-73
2023/10/10 01:22:48;;;;;;;;;;;13.70;99.90;;;;;;5076116;28;19912;-73
2023/10/10 01:25:41;;;;;;;;;;;13.60;99.90;;;;;;5075263;28;19920;-73
2023/10/10 01:28:23;;;;;;;;;;;13.60;99.90;;;;;;5074319;28;19966;-73
2023/10/10 01:33:22;;;;;;;;;;;13.50;99.90;;;;;;5075391;28;19920;-73
2023/10/10 01:35:49;;;;;;;;;;;13.50;99.90;;;;;;5074474;28;19909;-73
2023/10/10 01:38:38;;;;;;;;;;;13.40;99.90;;;;;;5075640;28;19912;-73
2023/10/10 01:41:15;;;;;;;;;;;13.40;99.90;;;;;;5075803;28;19952;-73
2023/10/10 01:43:46;;;;;;;;;;;13.40;99.90;;;;;;5074501;28;19908;-73
2023/10/10 01:46:19;;;;;;;;;;;13.40;99.90;;;;;;5075418;28;20684;-73
2023/10/10 01:48:45;;;;;;;;;;;13.40;99.90;;;;;;5074447;28;19917;-73
2023/10/10 01:51:15;;;;;;;;;;;13.40;99.90;;;;;;5076144;28;19951;-73
2023/10/10 01:53:41;;;;;;;;;;;13.30;99.90;;;;;;5075720;28;19909;-73
2023/10/10 01:56:07;;;;;;;;;;;13.30;99.90;;;;;;5080122;28;19913;-74
2023/10/10 01:58:36;;;;;;;;;;;13.30;99.90;;;;;;5077969;28;19912;-73
2023/10/10 02:01:16;;;;;;;;;;;13.30;99.90;;;;;;5078164;28;19912;-73
2023/10/10 02:03:42;;;;;;;;;;;13.20;99.90;;;;;;5078021;28;20612;-73
2023/10/10 02:06:14;;;;;;;;;;;13.20;99.90;;;;;;5079548;28;19915;-73
2023/10/10 02:08:44;;;;;;;;;;;13.20;99.90;;;;;;5079080;28;19967;-74
2023/10/10 02:11:12;;;;;;;;;;;13.20;99.90;;;;;;5076906;28;19912;-73
2023/10/10 02:13:39;;;;;;;;;;;13.20;99.90;;;;;;5079715;28;20038;-74
2023/10/10 02:16:10;;;;;;;;;;;13.20;99.90;;;;;;5079514;28;19913;-73
2023/10/10 02:18:44;;;;;;;;;;;13.10;99.90;;;;;;5079513;28;20003;-73
2023/10/10 02:21:16;;;;;;;;;;;13.10;99.90;;;;;;5079146;28;19944;-73
2023/10/10 02:23:46;;;;;;;;;;;13.10;99.90;;;;;;5066818;28;19908;-73
2023/10/10 02:26:23;;;;;;;;;;;13.10;99.90;;;;;;5077604;28;19916;-74
2023/10/10 02:28:49;;;;;;;;;;;13.10;99.90;;;;;;5078899;28;19919;-74
2023/10/10 02:31:16;;;;;;;;;;;13.10;99.90;;;;;;5078594;28;20406;-74
2023/10/10 02:33:48;;;;;;;;;;;13.10;99.90;;;;;;5079114;28;19920;-74
2023/10/10 02:36:30;;;;;;;;;;;13.10;99.90;;;;;;5077599;28;19923;-73
2023/10/10 02:38:59;;;;;;;;;;;13.00;99.90;;;;;;5070835;28;19935;-73
2023/10/10 02:41:38;;;;;;;;;;;13.00;99.90;;;;;;5076981;28;19915;-73
2023/10/10 02:44:05;;;;;;;;;;;12.90;99.90;;;;;;5077290;28;19954;-73
2023/10/10 02:46:35;;;;;;;;;;;12.90;99.90;;;;;;5078425;28;20003;-73
2023/10/10 02:49:12;;;;;;;;;;;12.90;99.90;;;;;;5077106;28;19918;-73
2023/10/10 02:51:43;;;;;;;;;;;12.80;99.90;;;;;;5078637;28;19959;-74
2023/10/10 02:59:52;;;;;;;;;;;12.70;99.90;;;;;;5078372;28;19995;-74
2023/10/10 03:02:19;;;;;;;;;;;12.60;99.90;;;;;;5077714;28;19916;-74
2023/10/10 03:07:31;;;;;;;;;;;12.60;99.90;;;;;;5071545;28;19927;-73
2023/10/10 03:12:43;;;;;;;;;;;12.60;99.90;;;;;;5078234;28;19963;-73
2023/10/10 03:18:15;;;;;;;;;;;12.50;99.90;;;;;;5077726;28;19909;-74
2023/10/10 03:26:04;;;;;;;;;;;12.30;99.90;;;;;;5078188;28;19908;-74
2023/10/10 03:28:34;;;;;;;;;;;12.30;99.90;;;;;;5076585;28;19916;-73
2023/10/10 05:23:29;;;;;;;;;;;12.10;99.90;;;;;;5077775;28;19908;-74
2023/10/10 05:25:44;;;;;;;;;;;11.30;99.90;;;;;;5076104;28;20045;-74
2023/10/10 05:28:09;;;;;;;;;;;11.30;99.90;;;;;;5075504;28;19947;-73
2023/10/10 05:30:44;;;;;;;;;;;11.30;99.90;;;;;;5074566;28;19920;-74
2023/10/10 05:33:10;;;;;;;;;;;11.20;99.90;;;;;;5073812;28;19908;-74
2023/10/10 05:35:48;;;;;;;;;;;11.20;99.90;;;;;;5075586;28;19916;-74
2023/10/10 05:38:19;;;;;;;;;;;11.20;99.90;;;;;;5075836;28;20003;-74
2023/10/10 05:40:47;;;;;;;;;;;11.20;99.90;;;;;;5075819;28;20307;-74
2023/10/10 05:43:15;;;;;;;;;;;11.20;99.90;;;;;;5076378;28;20011;-74
2023/10/10 05:45:42;;;;;;;;;;;11.20;99.90;;;;;;5075473;28;19915;-74
2023/10/10 05:48:07;;;;;;;;;;;11.10;99.90;;;;;;5074139;28;19962;-74
2023/10/10 05:50:33;;;;;;;;;;;11.20;99.90;;;;;;5074170;28;19912;-74
2023/10/10 05:53:05;;;;;;;;;;;11.10;99.90;;;;;;5075863;28;20346;-74
2023/10/10 05:55:38;;;;;;;;;;;11.10;99.90;;;;;;5074161;28;19908;-74
2023/10/10 05:58:04;;;;;;;;;;;11.10;99.90;;;;;;5075526;28;19955;-74
2023/10/10 06:00:36;;;;;;;;;;;11.10;99.90;;;;;;5075459;28;20333;-74
2023/10/10 06:03:07;;;;;;;;;;;11.10;99.90;;;;;;5075633;28;19992;-74
2023/10/10 06:05:33;;;;;;;;;;;11.10;99.90;;;;;;5075410;28;19912;-74
2023/10/10 06:07:59;;;;;;;;;;;11.10;99.90;;;;;;5075330;28;20513;-74
2023/10/10 06:10:28;;;;;;;;;;;11.10;99.90;;;;;;5075378;28;19912;-74
2023/10/10 06:12:55;;;;;;;;;;;11.10;99.90;;;;;;5074035;28;19913;-74
2023/10/10 06:15:20;;;;;;;;;;;11.10;99.90;;;;;;5073954;28;19909;-74
2023/10/10 06:17:48;;;;;;;;;;;11.20;99.90;;;;;;5075175;28;20226;-74
2023/10/10 06:20:16;;;;;;;;;;;11.20;99.90;;;;;;5075475;28;19916;-74
2023/10/10 06:22:44;;;;;;;;;;;11.20;99.90;;;;;;5074065;28;19931;-74
2023/10/10 06:25:17;;;;;;;;;;;11.20;99.90;;;;;;5074001;28;19934;-74
2023/10/10 06:27:45;;;;;;;;;;;11.30;99.90;;;;;;5074971;28;19917;-74
2023/10/10 06:30:20;;;;;;;;;;;11.40;99.90;;;;;;5075008;28;19919;-74
2023/10/10 06:32:47;;;;;;;;;;;11.40;99.90;;;;;;5073495;28;19916;-74
2023/10/10 06:35:27;;;;;;;;;;;11.40;99.90;;;;;;5075289;28;19916;-74
2023/10/10 06:37:52;;;;;;;;;;;11.50;99.90;;;;;;5075060;28;19908;-74
2023/10/10 06:40:25;;;;;;;;;;;11.50;99.90;;;;;;5074879;28;20407;-74
2023/10/10 06:42:55;;;;;;;;;;;11.50;99.90;;;;;;5076418;28;19912;-73
2023/10/10 06:45:24;;;;;;;;;;;11.60;99.90;;;;;;5078518;28;19962;-74
2023/10/10 06:47:54;;;;;;;;;;;11.70;99.90;;;;;;5078506;28;19966;-74
2023/10/10 06:50:23;;;;;;;;;;;11.70;99.90;;;;;;5078038;28;19915;-74
2023/10/10 06:52:52;;;;;;;;;;;11.80;99.90;;;;;;5078570;28;19912;-74
2023/10/10 06:55:21;;;;;;;;;;;11.80;99.90;;;;;;5076988;28;19916;-74
2023/10/10 06:57:57;;;;;;;;;;;11.90;99.90;;;;;;5078468;28;19909;-74
2023/10/10 07:02:59;;;;;;;;;;;12.00;99.90;;;;;;5078548;28;20388;-74
2023/10/10 07:05:27;;;;;;;;;;;12.10;99.90;;;;;;5076969;28;20041;-74
2023/10/10 07:08:01;;;;;;;;;;;12.20;99.90;;;;;;5078426;28;19965;-74
2023/10/10 07:10:33;;;;;;;;;;;12.20;99.90;;;;;;5076420;28;19919;-74
2023/10/10 07:13:10;;;;;;;;;;;12.30;99.90;;;;;;5078192;28;19915;-74
2023/10/10 07:15:37;;;;;;;;;;;12.40;99.90;;;;;;5078097;28;20007;-74
2023/10/10 07:18:09;;;;;;;;;;;12.50;99.90;;;;;;5077739;28;19908;-74
2023/10/10 07:23:22;;;;;;;;;;;12.70;99.90;;;;;;5077786;28;20334;-74
2023/10/10 07:26:00;;;;;;;;;;;13.00;99.90;;;;;;5076646;28;19915;-74
2023/10/10 07:28:29;;;;;;;;;;;13.10;99.90;;;;;;5076762;28;20011;-74
2023/10/10 07:30:55;;;;;;;;;;;13.30;99.90;;;;;;5077320;28;19925;-74
2023/10/10 07:33:29;;;;;;;;;;;13.50;99.90;;;;;;5077974;28;19909;-74
2023/10/10 07:35:55;;;;;;;;;;;13.60;99.90;;;;;;5077708;28;19969;-74
2023/10/10 07:38:27;;;;;;;;;;;13.80;99.90;;;;;;5076659;28;19948;-74
2023/10/10 07:40:53;;;;;;;;;;;13.90;99.90;;;;;;5076080;28;19916;-74
2023/10/10 07:43:20;;;;;;;;;;;14.10;99.90;;;;;;5077650;28;19916;-74
2023/10/10 07:45:47;;;;;;;;;;;14.20;99.90;;;;;;5077075;28;19943;-74
2023/10/10 07:50:47;;;;;;;;;;;14.40;99.90;;;;;;5077687;28;20322;-74
2023/10/10 07:53:13;;;;;;;;;;;14.60;99.90;;;;;;5076201;28;20320;-74
2023/10/10 07:59:05;;;;;;;;;;;14.70;99.90;;;;;;5077296;28;19919;-74
2023/10/10 08:01:17;;;;;;;;;;;14.90;99.90;;;;;;5063948;28;19908;-74
2023/10/10 08:03:47;;;;;;;;;;;15.00;99.90;;;;;;5077214;28;20521;-74
2023/10/10 08:06:17;;;;;;;;;;;15.10;99.90;;;;;;5077234;28;19930;-74
2023/10/10 08:08:43;;;;;;;;;;;15.30;99.90;;;;;;5077208;28;19920;-74
2023/10/10 08:11:24;;;;;;;;;;;15.30;99.90;;;;;;5077292;28;19958;-74
2023/10/10 08:13:50;;;;;;;;;;;15.40;99.90;;;;;;5076436;28;19966;-74
2023/10/10 08:16:25;;;;;;;;;;;15.50;99.90;;;;;;5077526;28;19913;-73
2023/10/10 08:18:53;;;;;;;;;;;15.60;99.90;;;;;;5077248;28;19915;-74
2023/10/10 08:21:22;;;;;;;;;;;15.70;99.90;;;;;;5075485;28;19950;-74
2023/10/10 08:23:49;;;;;;;;;;;15.80;99.90;;;;;;5076870;28;20360;-74
2023/10/10 08:26:19;;;;;;;;;;;15.90;99.90;;;;;;5076813;28;20384;-74
2023/10/10 08:28:45;;;;;;;;;;;16.00;99.90;;;;;;5077177;28;20008;-75
2023/10/10 08:31:10;;;;;;;;;;;16.20;99.90;;;;;;5075821;28;19921;-74
2023/10/10 08:33:36;;;;;;;;;;;16.40;99.90;;;;;;5075279;28;19908;-74
2023/10/10 08:36:02;;;;;;;;;;;16.50;99.90;;;;;;5075303;28;20405;-74
2023/10/10 08:38:27;;;;;;;;;;;16.60;99.90;;;;;;5075100;28;19920;-74
2023/10/10 08:41:01;;;;;;;;;;;16.70;99.90;;;;;;5076465;28;20257;-74
2023/10/10 08:43:31;;;;;;;;;;;16.80;99.90;;;;;;5075285;28;20377;-74
2023/10/10 08:45:58;;;;;;;;;;;16.90;99.90;;;;;;5075980;28;19909;-74
2023/10/10 08:48:26;;;;;;;;;;;17.10;99.90;;;;;;5074977;28;20010;-74
2023/10/10 08:50:55;;;;;;;;;;;17.20;99.90;;;;;;5076178;28;20007;-74
2023/10/10 08:53:21;;;;;;;;;;;17.40;99.90;;;;;;5076640;28;19909;-74
2023/10/10 08:55:56;;;;;;;;;;;17.50;99.90;;;;;;5074880;28;19909;-74
2023/10/10 08:58:22;;;;;;;;;;;17.70;99.90;;;;;;5074632;28;19912;-74
2023/10/10 09:00:48;;;;;;;;;;;17.80;99.90;;;;;;5074584;28;19920;-74
2023/10/10 09:03:13;;;;;;;;;;;17.90;99.90;;;;;;5074558;28;20400;-74
2023/10/10 09:05:39;;;;;;;;;;;18.00;99.90;;;;;;5075672;28;20311;-75
2023/10/10 09:08:14;;;;;;;;;;;18.20;99.90;;;;;;5075037;28;19924;-74
2023/10/10 09:10:40;;;;;;;;;;;18.30;99.90;;;;;;5076220;28;19916;-74
2023/10/10 09:13:07;;;;;;;;;;;18.30;99.90;;;;;;5075856;28;19958;-74
2023/10/10 09:15:34;;;;;;;;;;;18.40;99.90;;;;;;5076095;28;19909;-74
2023/10/10 09:18:12;;;;;;;;;;;18.50;99.90;;;;;;5075787;28;19913;-74
2023/10/10 09:20:38;;;;;;;;;;;18.70;99.90;;;;;;5074769;28;20011;-74
2023/10/10 09:23:21;;;;;;;;;;;18.80;99.90;;;;;;5075835;28;20445;-74
2023/10/10 09:25:57;;;;;;;;;;;19.00;99.90;;;;;;5075816;28;19913;-74
2023/10/10 09:28:30;;;;;;;;;;;19.20;99.90;;;;;;5073804;28;20308;-74
2023/10/10 09:31:00;;;;;;;;;;;19.40;99.90;;;;;;5075402;28;20078;-74
2023/10/10 09:33:30;;;;;;;;;;;19.50;99.90;;;;;;5064921;28;20376;-75
2023/10/10 09:36:08;;;;;;;;;;;19.60;99.90;;;;;;5075583;28;19955;-72
2023/10/10 09:38:36;;;;;;;;;;;19.80;99.90;;;;;;5076090;28;19916;-73
2023/10/10 09:41:14;;;;;;;;;;;19.90;99.90;;;;;;5075765;28;20077;-74
2023/10/10 09:44:01;;;;;;;;;;;20.10;99.90;;;;;;5075854;28;19917;-74
2023/10/10 09:46:36;;;;;;;;;;;20.20;99.90;;;;;;5064651;28;20270;-74
2023/10/10 09:54:17;;;;;;;;;;;20.50;99.90;;;;;;5075661;28;20287;-74
2023/10/10 09:56:47;;;;;;;;;;;20.70;99.90;;;;;;5075450;28;20007;-74
2023/10/10 09:59:16;;;;;;;;;;;20.80;99.90;;;;;;5075636;28;20008;-74
2023/10/10 10:01:46;;;;;;;;;;;20.90;99.90;;;;;;5074919;28;19919;-74
2023/10/10 10:04:18;;;;;;;;;;;21.00;99.90;;;;;;5074437;28;20367;-74
2023/10/10 10:07:12;;;;;;;;;;;21.10;99.90;;;;;;5075422;28;19950;-73
2023/10/10 10:09:45;;;;;;;;;;;21.30;99.90;;;;;;5075600;28;19919;-74
2023/10/10 10:12:15;;;;;;;;;;;21.40;99.90;;;;;;5072852;28;19955;-74
2023/10/10 10:15:03;;;;;;;;;;;21.50;99.90;;;;;;5089002;28;19916;-73
2023/10/10 10:17:47;;;;;;;;;;;21.60;99.90;;;;;;5079158;28;19936;-74
2023/10/10 10:20:21;;;;;;;;;;;21.70;99.90;;;;;;5077356;28;19916;-74
2023/10/10 10:22:53;;;;;;;;;;;21.80;99.90;;;;;;5079004;28;19940;-74
2023/10/10 10:25:28;;;;;;;;;;;21.80;99.90;;;;;;5079246;28;19909;-74
2023/10/10 10:28:00;;;;;;;;;;;21.90;99.90;;;;;;5077868;28;19952;-74
2023/10/10 10:32:55;;;;;;;;;;;22.10;99.90;;;;;;5078739;28;20334;-74
2023/10/10 10:35:21;;;;;;;;;;;22.20;99.90;;;;;;5077673;28;19912;-74
2023/10/10 10:37:53;;;;;;;;;;;22.30;99.90;;;;;;5078503;28;19951;-74
2023/10/10 10:40:23;;;;;;;;;;;22.40;99.90;;;;;;5077849;28;19954;-74
2023/10/10 10:42:53;;;;;;;;;;;22.50;99.90;;;;;;5077173;28;20337;-72
2023/10/10 10:45:34;;;;;;;;;;;22.50;99.90;;;;;;5078298;28;19915;-73
2023/10/10 10:48:04;;;;;;;;;;;22.50;99.90;;;;;;5078607;28;19919;-72
2023/10/10 10:50:40;;;;;;;;;;;22.60;99.90;;;;;;5078509;28;20288;-73
2023/10/10 10:57:01;;;;;;;;;;;22.70;99.90;;;;;;5077688;28;19915;-72
2023/10/10 11:01:21;;;;;;;;;;;22.90;99.90;;;;;;5078524;28;19916;-72
2023/10/10 11:03:51;;;;;;;;;;;23.00;99.90;;;;;;5077017;28;19944;-73
2023/10/10 11:06:20;;;;;;;;;;;23.00;99.90;;;;;;5078520;28;19977;-72
2023/10/10 11:11:36;;;;;;;;;;;23.30;99.90;;;;;;5078132;28;19909;-72
2023/10/10 11:14:44;;;;;;;;;;;23.50;99.90;;;;;;5078119;28;19936;-73
2023/10/10 11:16:58;;;;;;;;;;;23.60;99.90;;;;;;5075284;28;20337;-72
2023/10/10 11:21:53;;;;;;;;;;;23.80;99.90;;;;;;5076961;28;19955;-72
2023/10/10 11:24:26;;;;;;;;;;;23.90;99.90;;;;;;5077997;28;19912;-73
2023/10/10 11:27:07;;;;;;;;;;;23.90;99.90;;;;;;5077576;28;20002;-72
2023/10/10 11:29:42;;;;;;;;;;;23.90;99.90;;;;;;5076590;28;20402;-72
2023/10/10 11:32:08;;;;;;;;;;;23.90;99.90;;;;;;5077884;28;19924;-73
2023/10/10 11:34:42;;;;;;;;;;;24.00;99.90;;;;;;5078072;28;19963;-73
2023/10/10 11:37:15;;;;;;;;;;;24.00;99.90;;;;;;5077982;28;19912;-73
2023/10/10 11:39:47;;;;;;;;;;;24.10;99.90;;;;;;5075989;28;20284;-72
2023/10/10 11:42:33;;;;;;;;;;;24.20;99.90;;;;;;5077644;28;19912;-73
2023/10/10 11:45:17;;;;;;;;;;;24.30;99.90;;;;;;5066478;28;19908;-73
2023/10/10 11:47:44;;;;;;;;;;;24.50;99.90;;;;;;5076956;28;19952;-73
2023/10/10 11:50:13;;;;;;;;;;;24.60;99.90;;;;;;5077522;28;20388;-72
2023/10/10 11:52:52;;;;;;;;;;;24.50;99.90;;;;;;5073615;28;19991;-73
2023/10/10 11:55:21;;;;;;;;;;;24.60;99.90;;;;;;5077238;28;19912;-72
2023/10/10 11:57:49;;;;;;;;;;;24.70;99.90;;;;;;5066077;28;19916;-73
2023/10/10 12:00:38;;;;;;;;;;;24.80;99.90;;;;;;5075922;28;19912;-72
2023/10/10 12:03:05;;;;;;;;;;;25.10;99.90;;;;;;5077338;28;19912;-73
2023/10/10 12:07:59;;;;;;;;;;;25.30;99.10;;;;;;5077369;28;19912;-73
2023/10/10 12:10:39;;;;;;;;;;;25.50;98.70;;;;;;5076936;28;20029;-72
2023/10/10 12:13:09;;;;;;;;;;;25.60;98.60;;;;;;5076983;28;19919;-73
2023/10/10 12:15:40;;;;;;;;;;;25.80;98.40;;;;;;5076682;28;20670;-74
2023/10/10 12:18:09;;;;;;;;;;;25.90;98.00;;;;;;5075667;28;19919;-73
2023/10/10 12:20:36;;;;;;;;;;;25.90;99.80;;;;;;5076840;28;19934;-73
2023/10/10 12:23:01;;;;;;;;;;;25.80;98.80;;;;;;5076863;28;19977;-73
2023/10/10 12:25:27;;;;;;;;;;;25.80;99.80;;;;;;5077393;28;19908;-73
2023/10/10 12:27:59;;;;;;;;;;;25.80;98.20;;;;;;5076547;28;19913;-73
2023/10/10 12:30:25;;;;;;;;;;;25.80;97.90;;;;;;5064982;28;19915;-72
2023/10/10 12:32:50;;;;;;;;;;;26.00;97.70;;;;;;5076402;28;19916;-72
2023/10/10 12:35:16;;;;;;;;;;;25.90;98.20;;;;;;5076515;28;19912;-73
2023/10/10 12:37:44;;;;;;;;;;;25.90;98.00;;;;;;5074218;28;19909;-73
2023/10/10 12:40:14;;;;;;;;;;;25.80;98.30;;;;;;5076668;28;19923;-73
2023/10/10 12:42:40;;;;;;;;;;;26.00;97.50;;;;;;5072378;28;19926;-73
2023/10/10 12:45:06;;;;;;;;;;;26.10;97.60;;;;;;5076090;28;21345;-73
2023/10/10 12:47:32;;;;;;;;;;;26.20;97.30;;;;;;5076134;28;19916;-73
2023/10/10 12:50:04;;;;;;;;;;;26.30;96.60;;;;;;5074003;28;19912;-73
2023/10/10 12:52:35;;;;;;;;;;;26.40;96.30;;;;;;5076441;28;19923;-72
2023/10/10 12:55:01;;;;;;;;;;;26.50;95.30;;;;;;5076385;28;20019;-73
2023/10/10 12:57:32;;;;;;;;;;;26.70;94.60;;;;;;5075033;28;19919;-72
2023/10/10 13:00:23;;;;;;;;;;;26.80;94.20;;;;;;5074757;28;19915;-72
2023/10/10 13:02:43;;;;;;;;;;;27.00;93.90;;;;;;5065283;28;19920;-73
2023/10/10 13:05:08;;;;;;;;;;;27.10;93.80;;;;;;5075983;28;20366;-73
2023/10/10 13:07:36;;;;;;;;;;;27.10;92.80;;;;;;5074603;28;19920;-73
2023/10/10 13:10:10;;;;;;;;;;;27.00;93.20;;;;;;5074745;28;19920;-73
2023/10/10 13:12:36;;;;;;;;;;;27.00;93.10;;;;;;5064805;28;19962;-73
2023/10/10 13:15:17;;;;;;;;;;;27.10;92.90;;;;;;5074335;28;19916;-72
2023/10/10 13:20:27;;;;;;;;;;;27.30;92.00;;;;;;5075970;28;19946;-73
2023/10/10 13:22:53;;;;;;;;;;;27.30;91.50;;;;;;5075504;28;19908;-73
2023/10/10 13:25:19;;;;;;;;;;;27.20;92.50;;;;;;5076185;28;20284;-73
2023/10/10 13:27:52;;;;;;;;;;;27.10;91.70;;;;;;5075623;28;19913;-73
2023/10/10 13:30:18;;;;;;;;;;;27.20;91.70;;;;;;5074364;28;19913;-72
2023/10/10 13:32:43;;;;;;;;;;;27.30;91.90;;;;;;5075384;28;19913;-73
2023/10/10 13:35:09;;;;;;;;;;;27.30;90.50;;;;;;5075874;28;19981;-72
2023/10/10 13:37:38;;;;;;;;;;;27.40;91.10;;;;;;5075575;28;19909;-73
2023/10/10 13:40:05;;;;;;;;;;;27.40;91.30;;;;;;5075771;28;19909;-72
2023/10/10 13:42:31;;;;;;;;;;;27.50;89.90;;;;;;5075617;28;19920;-72
2023/10/10 13:45:09;;;;;;;;;;;27.50;90.80;;;;;;5075690;28;19908;-73
2023/10/10 13:47:36;;;;;;;;;;;27.50;89.40;;;;;;5072746;28;20322;-74
2023/10/10 13:52:59;;;;;;;;;;;27.30;88.00;;;;;;5060040;28;19919;-72
2023/10/10 13:55:29;;;;;;;;;;;27.40;88.60;;;;;;5079465;28;20035;-73
2023/10/10 13:57:55;;;;;;;;;;;27.40;89.60;;;;;;5079566;28;19908;-73
2023/10/10 14:00:29;;;;;;;;;;;27.50;89.00;;;;;;5079059;28;19927;-72
2023/10/10 14:03:05;;;;;;;;;;;27.50;90.00;;;;;;5079586;28;19915;-72
2023/10/10 14:05:34;;;;;;;;;;;27.50;90.40;;;;;;5078451;28;19916;-73
2023/10/10 14:08:02;;;;;;;;;;;27.40;88.80;;;;;;5078379;28;19920;-72
2023/10/10 14:10:38;;;;;;;;;;;27.30;89.20;;;;;;5079285;28;19955;-72
2023/10/10 14:13:18;;;;;;;;;;;27.30;88.50;;;;;;5079204;28;20011;-72
2023/10/10 14:15:57;;;;;;;;;;;27.30;88.20;;;;;;5078941;28;20342;-72
2023/10/10 14:18:51;;;;;;;;;;;27.30;88.40;;;;;;5079293;28;19909;-72
2023/10/10 14:21:17;;;;;;;;;;;27.40;88.10;;;;;;5077674;28;19939;-73
2023/10/10 14:23:45;;;;;;;;;;;27.50;87.80;;;;;;5079100;28;19908;-72
2023/10/10 14:26:16;;;;;;;;;;;27.60;86.40;;;;;;5073979;28;19912;-72
2023/10/10 14:28:50;;;;;;;;;;;27.60;88.90;;;;;;5079159;28;19921;-72
2023/10/10 14:31:17;;;;;;;;;;;27.60;87.00;;;;;;5078489;28;19921;-73
2023/10/10 14:33:43;;;;;;;;;;;27.50;89.90;;;;;;5079043;28;20372;-72
2023/10/10 14:36:12;;;;;;;;;;;27.60;85.00;;;;;;5077433;28;19986;-72
2023/10/10 14:38:38;;;;;;;;;;;27.80;84.20;;;;;;5078136;28;19935;-72
2023/10/10 14:41:07;;;;;;;;;;;27.90;82.70;;;;;;5077891;28;19943;-73
2023/10/10 14:43:33;;;;;;;;;;;27.90;82.80;;;;;;5078977;28;19912;-73
2023/10/10 14:45:58;;;;;;;;;;;27.90;83.90;;;;;;5078565;28;19908;-72
2023/10/10 14:48:24;;;;;;;;;;;27.90;82.10;;;;;;5078685;28;19954;-73
2023/10/10 14:50:52;;;;;;;;;;;27.90;84.30;;;;;;5077476;28;19920;-72
2023/10/10 14:53:24;;;;;;;;;;;27.70;86.10;;;;;;5078631;28;19946;-72
2023/10/10 14:55:53;;;;;;;;;;;27.40;85.50;;;;;;5076643;28;19908;-73
2023/10/10 14:58:21;;;;;;;;;;;27.20;84.50;;;;;;5070235;28;19951;-73
2023/10/10 15:00:49;;;;;;;;;;;27.10;82.90;;;;;;5077322;28;19915;-72
2023/10/10 15:03:15;;;;;;;;;;;27.00;84.20;;;;;;5078203;28;20007;-73
2023/10/10 15:05:50;;;;;;;;;;;26.90;85.70;;;;;;5078127;28;19916;-73
2023/10/10 15:08:19;;;;;;;;;;;26.80;84.80;;;;;;5077034;28;20017;-73
2023/10/10 15:10:53;;;;;;;;;;;26.80;84.10;;;;;;5077364;28;19908;-73
2023/10/10 15:13:19;;;;;;;;;;;26.80;85.20;;;;;;5076864;28;19997;-73
2023/10/10 15:15:45;;;;;;;;;;;26.70;85.60;;;;;;5073490;28;19915;-72
2023/10/10 15:18:18;;;;;;;;;;;26.60;86.60;;;;;;5078161;28;19926;-73
2023/10/10 15:20:48;;;;;;;;;;;26.50;88.80;;;;;;5077810;28;20395;-73
2023/10/10 15:23:18;;;;;;;;;;;26.30;86.10;;;;;;5077919;28;19934;-73
2023/10/10 15:25:53;;;;;;;;;;;26.20;88.60;;;;;;5078062;28;19920;-73
2023/10/10 15:28:19;;;;;;;;;;;26.00;88.90;;;;;;5077534;28;19987;-73
2023/10/10 15:30:45;;;;;;;;;;;26.00;90.70;;;;;;5077320;28;19962;-73
2023/10/10 15:33:17;;;;;;;;;;;25.70;91.20;;;;;;5076422;28;19966;-73
2023/10/10 15:35:49;;;;;;;;;;;25.60;91.50;;;;;;5077926;28;19934;-74
2023/10/10 15:38:15;;;;;;;;;;;25.30;92.00;;;;;;5077490;28;19908;-73
2023/10/10 15:40:43;;;;;;;;;;;25.20;92.10;;;;;;5076274;28;19919;-74
2023/10/10 15:43:11;;;;;;;;;;;25.00;91.90;;;;;;5076312;28;19912;-73
2023/10/10 15:45:47;;;;;;;;;;;25.00;91.70;;;;;;5077209;28;19919;-74
2023/10/10 15:48:21;;;;;;;;;;;24.90;91.50;;;;;;5077561;28;20299;-73
2023/10/10 15:50:53;;;;;;;;;;;24.90;90.90;;;;;;5077366;28;19912;-74
2023/10/10 15:53:20;;;;;;;;;;;24.80;91.70;;;;;;5077420;28;19916;-74
2023/10/10 15:55:53;;;;;;;;;;;24.70;90.80;;;;;;5077475;28;19915;-74
2023/10/10 15:58:23;;;;;;;;;;;24.70;91.90;;;;;;5077256;28;20003;-74
2023/10/10 16:00:48;;;;;;;;;;;24.70;91.90;;;;;;5076961;28;19909;-74
2023/10/10 16:03:14;;;;;;;;;;;24.60;92.30;;;;;;5076880;28;20395;-74
2023/10/10 16:05:41;;;;;;;;;;;24.50;92.30;;;;;;5075823;28;19917;-74
2023/10/10 16:08:06;;;;;;;;;;;24.30;92.70;;;;;;5077360;28;19913;-74
2023/10/10 16:10:32;;;;;;;;;;;24.20;93.00;;;;;;5076305;28;19912;-74
2023/10/10 16:12:58;;;;;;;;;;;24.10;92.80;;;;;;5077052;28;19908;-74
2023/10/10 16:15:24;;;;;;;;;;;24.00;92.90;;;;;;5075400;28;19915;-74
2023/10/10 16:17:52;;;;;;;;;;;23.90;93.20;;;;;;5075445;28;19912;-74
2023/10/10 16:20:22;;;;;;;;;;;23.90;93.10;;;;;;5075692;28;19916;-73
2023/10/10 16:22:48;;;;;;;;;;;23.80;93.20;;;;;;5076089;28;19962;-74
2023/10/10 16:25:14;;;;;;;;;;;23.80;93.00;;;;;;5076673;28;19912;-74
2023/10/10 16:27:40;;;;;;;;;;;23.70;93.70;;;;;;5076402;28;19965;-73
2023/10/10 16:30:10;;;;;;;;;;;23.60;93.60;;;;;;5076347;28;19913;-73
2023/10/10 16:32:37;;;;;;;;;;;23.60;93.90;;;;;;5076268;28;20324;-74
2023/10/10 16:35:05;;;;;;;;;;;23.60;94.40;;;;;;5076313;28;19915;-74
2023/10/10 16:37:36;;;;;;;;;;;23.50;94.70;;;;;;5076405;28;20003;-73
2023/10/10 16:40:03;;;;;;;;;;;23.40;94.80;;;;;;5076275;28;19913;-74
2023/10/10 16:42:29;;;;;;;;;;;23.30;95.00;;;;;;5076392;28;19909;-74
2023/10/10 16:44:54;;;;;;;;;;;23.30;95.10;;;;;;5076306;28;19915;-74
2023/10/10 16:47:21;;;;;;;;;;;23.30;95.20;;;;;;5075758;28;19915;-73
2023/10/10 16:49:49;;;;;;;;;;;23.10;95.60;;;;;;5075653;28;20398;-73
2023/10/10 16:52:14;;;;;;;;;;;23.00;95.70;;;;;;5074693;28;19916;-73
2023/10/10 16:54:45;;;;;;;;;;;23.00;95.60;;;;;;5076195;28;19921;-74
2023/10/10 16:57:11;;;;;;;;;;;23.00;95.80;;;;;;5076374;28;19912;-74
2023/10/10 16:59:37;;;;;;;;;;;23.00;96.40;;;;;;5076114;28;19912;-74
2023/10/10 17:02:02;;;;;;;;;;;23.00;96.70;;;;;;5075848;28;19916;-74
2023/10/10 17:04:28;;;;;;;;;;;22.90;97.10;;;;;;5076019;28;19909;-73
2023/10/10 17:06:54;;;;;;;;;;;22.90;96.90;;;;;;5076038;28;20403;-74
2023/10/10 17:09:19;;;;;;;;;;;22.90;97.00;;;;;;5075856;28;20454;-74
2023/10/10 17:11:50;;;;;;;;;;;22.80;97.20;;;;;;5074292;28;19952;-73
2023/10/10 17:14:19;;;;;;;;;;;22.70;97.00;;;;;;5074525;28;19923;-74
2023/10/10 17:16:44;;;;;;;;;;;22.60;97.20;;;;;;5073045;28;19913;-73
2023/10/10 17:19:10;;;;;;;;;;;22.50;96.90;;;;;;5075793;28;20303;-73
2023/10/10 17:21:35;;;;;;;;;;;22.40;97.20;;;;;;5075455;28;19909;-73
2023/10/10 17:24:03;;;;;;;;;;;22.40;97.00;;;;;;5074071;28;19909;-73
2023/10/10 17:26:30;;;;;;;;;;;22.40;97.50;;;;;;5074519;28;19912;-73
2023/10/10 17:28:59;;;;;;;;;;;22.30;97.70;;;;;;5075706;28;19916;-73